Time;durP1;ratioP1;P1;durP2;ratioP2;P2;SDS_P1;SDS_P2;PMS_P1;PMS_P2;Temp;Humidity;BMP_temperature;BMP_pressure;BME280_temperature;BME280_humidity;BME280_pressure;Samples;Min_cycle;Max_cycle;Signal;HPM_P1;HPM_P2
2021/12/05 00:20:08;;;;;;;12.23;1.42;;;17.60;99.90;;;;;;4992877;28;20026;-66
2021/12/05 00:22:41;;;;;;;10.27;2.10;;;17.70;99.90;;;;;;4992492;28;20049;-66
2021/12/05 00:25:11;;;;;;;14.18;1.92;;;17.70;99.90;;;;;;4988855;28;20049;-66
2021/12/05 00:27:47;;;;;;;7.07;1.10;;;17.70;99.90;;;;;;4993859;28;20018;-66
2021/12/05 00:33:26;;;;;;;9.98;1.40;;;17.90;99.90;;;;;;4993580;28;20105;-67
2021/12/05 00:49:57;;;;;;;15.48;1.88;;;18.40;99.90;;;;;;4993189;28;20030;-65
2021/12/05 00:55:07;;;;;;;12.43;1.42;;;18.50;99.90;;;;;;4991675;28;20038;-66
2021/12/05 01:03:37;;;;;;;12.32;1.42;;;18.40;99.90;;;;;;4983268;28;20101;-65
2021/12/05 01:09:23;;;;;;;13.10;1.77;;;18.30;99.90;;;;;;4976646;28;20125;-66
2021/12/05 01:14:51;;;;;;;13.55;1.55;;;18.00;99.90;;;;;;4991717;28;20050;-67
2021/12/05 01:17:25;;;;;;;8.52;1.60;;;18.00;99.90;;;;;;4998989;28;20029;-65
2021/12/05 01:19:55;;;;;;;14.27;1.77;;;17.90;99.90;;;;;;4998506;28;20038;-65
2021/12/05 01:22:23;;;;;;;8.80;1.25;;;17.90;99.90;;;;;;5001470;28;20033;-66
2021/12/05 01:27:43;;;;;;;8.82;1.52;;;18.00;99.90;;;;;;4997196;28;20045;-67
2021/12/05 01:30:19;;;;;;;7.95;1.58;;;18.00;99.90;;;;;;5000453;28;20026;-67
2021/12/05 01:39:01;;;;;;;11.77;1.45;;;17.80;99.90;;;;;;4998159;28;20109;-67
2021/12/05 01:49:05;;;;;;;;;;;17.90;99.90;;;;;;4996928;28;20034;-67
2021/12/05 01:51:50;;;;;;;11.13;1.77;;;18.00;99.90;;;;;;5002984;28;19906;-68
2021/12/05 01:57:08;;;;;;;9.20;1.45;;;18.00;99.90;;;;;;5004263;28;20026;-66
2021/12/05 02:29:56;;;;;;;13.05;1.88;;;18.10;99.90;;;;;;4978973;28;20037;-67
2021/12/05 02:38:05;;;;;;;8.68;1.38;;;18.20;99.90;;;;;;5006727;28;20054;-67
2021/12/05 02:45:33;;;;;;;8.65;1.05;;;18.20;99.90;;;;;;5006662;28;20034;-67
2021/12/05 02:48:01;;;;;;;7.10;1.10;;;18.20;99.90;;;;;;5003047;28;20468;-66
2021/12/05 02:50:31;;;;;;;7.93;1.52;;;18.10;99.90;;;;;;5006057;28;20026;-64
2021/12/05 02:53:03;;;;;;;8.48;1.55;;;18.10;99.90;;;;;;5005241;28;20029;-65
2021/12/05 02:55:37;;;;;;;11.32;1.98;;;18.10;99.90;;;;;;5007071;28;20023;-65
2021/12/05 02:58:15;;;;;;;;;;;18.10;99.90;;;;;;5005926;28;20026;-67
2021/12/05 03:01:07;;;;;;;12.02;1.67;;;18.20;99.90;;;;;;5022982;28;19932;-65
2021/12/05 03:03:33;;;;;;;10.50;1.25;;;18.10;99.90;;;;;;5006837;28;20042;-64
2021/12/05 03:06:15;;;;;;;9.43;1.33;;;18.10;99.90;;;;;;5009313;28;20030;-65
2021/12/05 03:08:43;;;;;;;10.65;1.33;;;18.00;99.90;;;;;;5007241;28;20022;-65
2021/12/05 03:11:11;;;;;;;10.52;1.38;;;18.00;99.90;;;;;;5003323;28;20034;-66
2021/12/05 03:13:40;;;;;;;12.20;1.90;;;18.10;99.90;;;;;;5005829;28;20066;-66
2021/12/05 03:16:11;;;;;;;13.77;0.95;;;18.20;99.90;;;;;;4993133;28;20027;-66
2021/12/05 03:18:39;;;;;;;11.27;1.58;;;18.30;99.90;;;;;;5001861;28;20018;-66
2021/12/05 03:21:08;;;;;;;13.77;1.50;;;18.30;99.90;;;;;;5005164;28;20042;-66
2021/12/05 03:23:40;;;;;;;7.60;1.10;;;18.40;99.90;;;;;;5003733;28;20030;-65
2021/12/05 03:26:10;;;;;;;10.27;1.30;;;18.30;99.90;;;;;;5008174;28;20030;-65
2021/12/05 03:28:38;;;;;;;9.55;2.13;;;18.30;99.90;;;;;;4988082;28;20689;-67
2021/12/05 03:31:07;;;;;;;10.45;1.05;;;18.30;99.90;;;;;;4990046;28;20033;-67
2021/12/05 03:33:35;;;;;;;7.78;0.98;;;18.30;99.90;;;;;;5000898;28;20029;-67
2021/12/05 03:36:05;;;;;;;12.65;1.05;;;18.40;99.90;;;;;;5001918;28;20030;-67
2021/12/05 03:38:34;;;;;;;9.45;1.35;;;18.30;99.90;;;;;;5002733;28;20030;-68
2021/12/05 03:41:01;;;;;;;9.30;1.40;;;18.40;99.90;;;;;;4999306;28;20026;-67
2021/12/05 03:43:30;;;;;;;14.13;1.63;;;18.40;99.90;;;;;;5010466;28;20406;-68
2021/12/05 03:45:58;;;;;;;8.15;1.80;;;18.30;99.90;;;;;;5001352;28;20026;-67
2021/12/05 03:48:31;;;;;;;11.40;1.10;;;18.40;99.90;;;;;;4998446;28;20065;-67
2021/12/05 03:51:01;;;;;;;9.73;1.20;;;18.40;99.90;;;;;;5017358;28;20040;-66
2021/12/05 03:53:28;;;;;;;9.13;1.38;;;18.40;99.90;;;;;;5000205;28;20034;-67
2021/12/05 03:55:57;;;;;;;10.52;1.40;;;18.30;99.90;;;;;;5000834;28;20018;-67
2021/12/05 03:58:28;;;;;;;10.80;1.75;;;18.30;99.90;;;;;;5000761;28;20026;-68
2021/12/05 04:00:58;;;;;;;8.43;1.27;;;18.30;99.90;;;;;;5002222;28;20019;-67
2021/12/05 04:03:27;;;;;;;8.02;1.23;;;18.30;99.90;;;;;;5000373;28;20027;-68
2021/12/05 04:05:55;;;;;;;14.20;1.80;;;18.10;99.90;;;;;;4986387;28;20034;-68
2021/12/05 04:08:25;;;;;;;10.57;1.23;;;18.10;99.90;;;;;;4994813;28;20491;-66
2021/12/05 04:10:58;;;;;;;10.00;1.02;;;18.20;99.90;;;;;;4979419;28;20023;-68
2021/12/05 04:13:25;;;;;;;10.55;1.50;;;18.20;99.90;;;;;;4992384;28;20105;-67
2021/12/05 04:15:55;;;;;;;8.25;1.27;;;18.30;99.90;;;;;;5001036;28;20026;-67
2021/12/05 04:18:23;;;;;;;13.13;1.45;;;18.20;99.90;;;;;;5012019;28;20034;-67
2021/12/05 04:20:50;;;;;;;10.32;0.80;;;18.20;99.90;;;;;;4996112;28;20061;-67
2021/12/05 04:23:17;;;;;;;8.70;1.40;;;18.20;99.90;;;;;;4996445;28;20039;-67
2021/12/05 04:25:48;;;;;;;8.55;1.02;;;18.20;99.90;;;;;;4998085;28;20033;-67
2021/12/05 04:28:17;;;;;;;13.73;1.58;;;18.20;99.90;;;;;;5016470;28;20033;-67
2021/12/05 04:30:45;;;;;;;6.43;0.98;;;18.20;99.90;;;;;;4999018;28;20074;-67
2021/12/05 04:33:12;;;;;;;10.57;1.17;;;18.30;99.90;;;;;;4999870;28;20030;-67
2021/12/05 04:35:40;;;;;;;7.40;1.10;;;18.20;99.90;;;;;;5000811;28;20018;-68
2021/12/05 04:38:07;;;;;;;9.00;1.52;;;18.30;99.90;;;;;;4998892;28;20049;-67
2021/12/05 04:40:35;;;;;;;8.90;0.90;;;18.30;99.90;;;;;;4998736;28;20102;-68
2021/12/05 04:43:04;;;;;;;5.95;1.08;;;18.30;99.90;;;;;;5002650;28;20038;-67
2021/12/05 04:45:35;;;;;;;9.55;1.40;;;18.40;99.90;;;;;;5000514;28;20387;-67
2021/12/05 04:48:04;;;;;;;10.88;1.02;;;18.40;99.90;;;;;;5003199;28;20025;-66
2021/12/05 04:50:34;;;;;;;8.48;1.20;;;18.30;99.90;;;;;;4998459;28;20058;-67
2021/12/05 04:53:02;;;;;;;11.32;1.50;;;18.30;99.90;;;;;;4998598;28;20704;-69
2021/12/05 04:55:30;;;;;;;11.40;1.52;;;18.50;99.90;;;;;;5001870;28;20041;-66
2021/12/05 04:57:58;;;;;;;4.85;0.70;;;18.50;99.90;;;;;;5000625;28;20027;-67
2021/12/05 05:00:39;;;;;;;10.07;1.73;;;18.50;99.90;;;;;;5005547;28;20014;-67
2021/12/05 05:03:07;;;;;;;11.50;1.42;;;18.50;99.90;;;;;;5002490;28;20023;-66
2021/12/05 05:05:37;;;;;;;11.73;1.83;;;18.40;99.90;;;;;;4999497;28;20033;-68
2021/12/05 05:08:05;;;;;;;9.32;1.40;;;18.50;99.90;;;;;;5003779;28;20057;-67
2021/12/05 05:10:34;;;;;;;7.63;1.10;;;18.40;99.90;;;;;;5004464;28;20026;-67
2021/12/05 05:13:01;;;;;;;11.30;1.73;;;18.30;99.90;;;;;;5004581;28;20046;-67
2021/12/05 05:15:30;;;;;;;10.23;1.48;;;18.30;99.90;;;;;;4998942;28;20092;-67
2021/12/05 05:18:01;;;;;;;10.90;1.50;;;18.30;99.90;;;;;;5000743;28;20561;-66
2021/12/05 05:47:50;;;;;;;7.03;1.08;;;18.30;99.90;;;;;;4999893;28;20510;-68
2021/12/05 05:50:20;;;;;;;12.38;1.50;;;18.20;99.90;;;;;;4997133;28;20146;-68
2021/12/05 05:52:49;;;;;;;7.45;1.05;;;18.20;99.90;;;;;;4995318;28;20459;-67
2021/12/05 05:55:16;;;;;;;15.57;1.45;;;18.20;99.90;;;;;;4999215;28;20537;-67
2021/12/05 06:00:34;;;;;;;9.15;1.08;;;18.20;99.90;;;;;;5003752;28;20027;-68
2021/12/05 06:03:21;;;;;;;8.50;1.58;;;18.20;99.90;;;;;;4995326;28;20117;-68
2021/12/05 06:05:58;;;;;;;12.07;1.08;;;18.20;99.90;;;;;;4995864;28;20030;-68
2021/12/05 06:08:28;;;;;;;10.65;1.25;;;18.20;99.90;;;;;;4997140;28;20515;-68
2021/12/05 06:11:00;;;;;;;5.20;0.50;;;18.10;99.90;;;;;;4997810;28;20022;-68
2021/12/05 06:13:29;;;;;;;6.85;1.20;;;18.10;99.90;;;;;;4997225;28;20138;-68
2021/12/05 06:15:57;;;;;;;7.10;1.27;;;18.10;99.90;;;;;;4998167;28;20165;-68
2021/12/05 06:18:25;;;;;;;15.45;1.67;;;18.20;99.90;;;;;;4998921;28;20039;-68
2021/12/05 06:20:53;;;;;;;7.60;1.25;;;18.20;99.90;;;;;;5001003;28;20022;-68
2021/12/05 06:23:20;;;;;;;12.10;1.50;;;18.20;99.90;;;;;;4999760;28;20507;-67
2021/12/05 06:25:50;;;;;;;9.48;0.90;;;18.20;99.90;;;;;;5000885;28;20018;-67
2021/12/05 06:28:25;;;;;;;10.30;1.40;;;18.20;99.90;;;;;;5002670;28;20037;-67
2021/12/05 06:42:18;;;;;;;8.90;1.20;;;18.20;99.90;;;;;;4992014;28;20035;-68
2021/12/05 06:47:31;;;;;;;7.93;1.70;;;18.10;99.90;;;;;;5003370;28;20088;-69
2021/12/05 06:50:00;;;;;;;12.10;1.90;;;18.10;99.90;;;;;;5018381;28;20053;-68
2021/12/05 06:52:27;;;;;;;11.98;1.65;;;18.10;99.90;;;;;;5018248;28;20031;-67
2021/12/05 06:54:54;;;;;;;7.93;1.13;;;18.10;99.90;;;;;;5007125;28;20041;-67
2021/12/05 06:57:22;;;;;;;7.65;0.98;;;18.20;99.90;;;;;;5015879;28;20044;-67
2021/12/05 06:59:49;;;;;;;9.45;1.00;;;18.10;99.90;;;;;;5014534;28;20030;-67
2021/12/05 07:02:19;;;;;;;9.55;0.93;;;18.10;99.90;;;;;;5010856;28;20439;-67
2021/12/05 07:07:22;;;;;;;14.00;1.70;;;18.10;99.90;;;;;;5006357;28;20434;-67
2021/12/05 07:09:50;;;;;;;14.23;1.73;;;18.00;99.90;;;;;;4996055;28;20019;-70
2021/12/05 07:15:10;;;;;;;13.82;2.05;;;18.10;99.90;;;;;;4997536;28;20140;-68
2021/12/05 07:22:53;;;;;;;13.02;1.63;;;17.90;99.90;;;;;;4990800;28;20045;-68
2021/12/05 07:25:35;;;;;;;8.55;1.23;;;17.90;99.90;;;;;;4998337;28;20454;-67
2021/12/05 07:42:04;;;;;;;7.05;1.25;;;17.80;99.90;;;;;;4999004;28;20053;-67
2021/12/05 07:44:32;;;;;;;8.38;1.27;;;17.80;99.90;;;;;;4988731;28;20165;-67
2021/12/05 07:46:59;;;;;;;8.45;1.55;;;17.80;99.90;;;;;;4998821;28;20035;-67
2021/12/05 07:49:27;;;;;;;8.05;1.10;;;17.80;99.90;;;;;;5006098;28;20019;-67
2021/12/05 07:51:54;;;;;;;15.45;1.90;;;17.80;99.90;;;;;;4997262;28;20073;-66
2021/12/05 07:54:43;;;;;;;9.25;2.05;;;17.80;99.90;;;;;;5000925;28;20031;-67
2021/12/05 07:57:20;;;;;;;10.73;1.60;;;17.80;99.90;;;;;;4989454;28;20110;-67
2021/12/05 08:16:15;;;;;;;12.52;2.00;;;17.80;99.90;;;;;;5001052;28;20466;-67
2021/12/05 08:18:43;;;;;;;6.38;1.10;;;17.80;99.90;;;;;;5000756;28;20026;-67
2021/12/05 08:21:12;;;;;;;13.88;1.33;;;17.80;99.90;;;;;;4996436;28;20026;-68
2021/12/05 08:23:39;;;;;;;8.48;1.10;;;17.80;99.90;;;;;;4997787;28;20557;-67
2021/12/05 08:26:11;;;;;;;9.43;1.27;;;17.70;99.90;;;;;;4996883;28;20033;-67
2021/12/05 08:29:05;;;;;;;5.53;1.00;;;17.80;99.90;;;;;;4999894;28;20029;-67
2021/12/05 08:31:55;;;;;;;11.88;1.50;;;17.80;99.90;;;;;;4999545;28;20041;-67
2021/12/05 08:34:43;;;;;;;34.58;22.13;;;17.70;99.90;;;;;;5000655;28;20045;-67
2021/12/05 09:23:46;;;;;;;9.82;1.65;;;17.60;99.90;;;;;;5004934;28;20049;-66
2021/12/05 10:08:04;;;;;;;13.10;1.65;;;17.60;99.90;;;;;;5002674;28;20105;-66
2021/12/05 10:13:09;;;;;;;15.02;1.75;;;17.60;99.90;;;;;;5004016;28;20034;-66
2021/12/05 10:15:56;;;;;;;9.80;1.20;;;17.60;99.90;;;;;;5018949;28;20049;-66
2021/12/05 10:38:21;;;;;;;8.80;1.10;;;17.70;99.90;;;;;;5002534;28;20026;-67
2021/12/05 10:41:19;;;;;;;12.68;1.88;;;17.70;99.90;;;;;;5003638;28;20045;-69
2021/12/05 10:43:51;;;;;;;8.45;1.30;;;17.70;99.90;;;;;;5000661;28;20030;-67
2021/12/05 10:46:20;;;;;;;10.80;1.83;;;17.70;99.90;;;;;;5020306;28;20026;-67
2021/12/05 10:48:53;;;;;;;11.45;1.10;;;17.70;99.90;;;;;;5002713;28;20033;-67
2021/12/05 10:51:27;;;;;;;12.25;1.63;;;17.70;99.90;;;;;;5005286;28;20038;-67
2021/12/05 10:53:58;;;;;;;12.68;1.10;;;17.70;99.90;;;;;;5020220;28;20034;-66
2021/12/05 10:56:34;;;;;;;14.05;1.05;;;17.70;99.90;;;;;;5001814;28;20628;-67
2021/12/05 10:59:20;;;;;;;8.75;1.50;;;17.70;99.90;;;;;;5002865;28;20037;-67
2021/12/05 11:01:53;;;;;;;9.52;1.45;;;17.70;99.90;;;;;;5019394;28;20065;-67
2021/12/05 11:04:27;;;;;;;8.70;1.38;;;17.70;99.90;;;;;;5001972;28;20031;-67
2021/12/05 11:07:06;;;;;;;10.65;1.15;;;17.60;99.90;;;;;;5004047;28;20011;-67
2021/12/05 11:10:02;;;;;;;15.77;1.98;;;17.60;99.90;;;;;;5004955;28;20348;-67
2021/12/05 11:12:33;;;;;;;16.38;2.05;;;17.60;99.90;;;;;;4999242;28;20035;-68
2021/12/05 11:15:11;;;;;;;12.75;1.30;;;17.60;99.90;;;;;;5001771;28;20622;-68
2021/12/05 11:17:46;;;;;;;16.08;1.65;;;17.60;99.90;;;;;;5015842;28;20136;-68
2021/12/05 11:20:32;;;;;;;11.52;1.83;;;17.60;99.90;;;;;;5014457;28;20110;-67
2021/12/05 11:23:00;;;;;;;9.05;0.90;;;17.50;99.90;;;;;;4995475;28;20034;-66
2021/12/05 11:25:35;;;;;;;8.88;2.05;;;17.50;99.90;;;;;;4999849;28;20161;-66
2021/12/05 11:28:08;;;;;;;8.93;1.85;;;17.50;99.90;;;;;;4999818;28;20530;-66
2021/12/05 11:30:40;;;;;;;10.05;3.13;;;17.50;99.90;;;;;;5000500;28;20038;-66
2021/12/05 11:33:17;;;;;;;9.68;2.10;;;17.50;99.90;;;;;;4998956;28;20121;-66
2021/12/05 11:35:49;;;;;;;9.70;1.10;;;17.50;99.90;;;;;;5012681;28;20035;-66
2021/12/05 11:38:25;;;;;;;12.35;2.58;;;17.40;99.90;;;;;;4993624;28;20018;-66
2021/12/05 11:41:02;;;;;;;12.40;1.15;;;17.30;99.90;;;;;;5002580;28;20062;-68
2021/12/05 11:43:38;;;;;;;9.18;1.00;;;17.30;99.90;;;;;;5002114;28;20046;-68
2021/12/05 11:46:21;;;;;;;8.77;1.30;;;17.30;99.90;;;;;;5003566;28;20478;-68
2021/12/05 11:48:54;;;;;;;14.13;1.77;;;17.20;99.90;;;;;;5006885;28;20025;-67
2021/12/05 11:51:34;;;;;;;8.82;1.38;;;17.20;99.90;;;;;;5005771;28;20034;-67
2021/12/05 11:54:21;;;;;;;9.52;1.50;;;17.10;99.90;;;;;;5001528;28;20649;-67
2021/12/05 11:56:51;;;;;;;16.55;2.47;;;17.20;99.90;;;;;;5007812;28;20057;-67
2021/12/05 11:59:21;;;;;;;10.27;1.45;;;17.20;99.90;;;;;;5002827;28;20041;-67
2021/12/05 12:02:17;;;;;;;13.88;1.50;;;17.20;99.90;;;;;;5000431;28;20050;-67
2021/12/05 12:05:17;;;;;;;11.80;2.17;;;17.20;99.90;;;;;;5005198;28;20026;-67
2021/12/05 12:07:50;;;;;;;15.52;2.63;;;17.30;99.90;;;;;;5001214;28;20022;-67
2021/12/05 12:10:26;;;;;;;8.82;1.52;;;17.30;99.90;;;;;;5002903;28;20034;-67
2021/12/05 12:13:01;;;;;;;8.70;1.60;;;17.30;99.90;;;;;;5001233;28;20046;-67
2021/12/05 12:15:30;;;;;;;11.77;1.92;;;17.20;99.90;;;;;;5016734;28;20030;-67
2021/12/05 12:18:07;;;;;;;9.90;1.38;;;17.20;99.90;;;;;;5012108;28;20030;-67
2021/12/05 12:20:38;;;;;;;9.93;1.15;;;17.20;99.90;;;;;;4991681;28;20033;-68
2021/12/05 12:23:05;;;;;;;12.95;1.23;;;17.20;99.90;;;;;;5004601;28;20034;-68
2021/12/05 12:25:39;;;;;;;12.23;2.15;;;17.20;99.90;;;;;;5014476;28;20025;-67
2021/12/05 12:28:08;;;;;;;8.87;1.27;;;17.20;99.90;;;;;;5002694;28;20034;-67
2021/12/05 12:30:42;;;;;;;37.20;18.90;;;17.20;99.90;;;;;;5003669;28;20050;-67
2021/12/05 12:33:13;;;;;;;15.10;4.50;;;17.20;99.90;;;;;;5003921;28;20106;-67
2021/12/05 12:35:44;;;;;;;13.23;2.75;;;17.20;99.90;;;;;;4983226;28;20034;-67
2021/12/05 12:38:16;;;;;;;10.93;2.63;;;17.20;99.90;;;;;;5004419;28;20383;-67
2021/12/05 12:41:05;;;;;;;15.98;2.08;;;17.10;99.90;;;;;;4999836;28;20086;-67
2021/12/05 12:43:38;;;;;;;12.07;1.20;;;17.10;99.90;;;;;;5007655;28;20423;-67
2021/12/05 12:46:38;;;;;;;9.80;1.63;;;17.10;99.90;;;;;;5002462;28;20457;-68
2021/12/05 12:49:35;;;;;;;12.10;2.03;;;17.10;99.90;;;;;;5002079;28;20319;-67
2021/12/05 12:52:14;;;;;;;12.30;2.35;;;17.10;99.90;;;;;;5004436;28;20056;-67
2021/12/05 12:54:48;;;;;;;12.52;2.47;;;17.10;99.90;;;;;;5002822;28;20127;-67
2021/12/05 12:57:34;;;;;;;12.02;1.35;;;17.10;99.90;;;;;;4998937;28;20101;-67
2021/12/05 13:00:08;;;;;;;13.05;1.27;;;17.10;99.90;;;;;;5015669;28;20030;-67
2021/12/05 13:07:15;;;;;;;10.32;1.83;;;17.10;99.90;;;;;;5001311;28;20121;-68
2021/12/05 13:11:20;;;;;;;14.05;2.28;;;17.20;99.90;;;;;;5000293;28;20053;-67
2021/12/05 13:14:04;;;;;;;9.80;1.58;;;17.20;99.90;;;;;;5001223;28;20057;-68
2021/12/05 13:16:36;;;;;;;14.23;2.05;;;17.20;99.90;;;;;;5000066;28;20053;-67
2021/12/05 13:19:18;;;;;;;12.32;1.63;;;17.20;99.90;;;;;;5000301;28;20076;-67
2021/12/05 13:21:49;;;;;;;10.05;1.55;;;17.30;99.90;;;;;;4996255;28;20026;-67
2021/12/05 13:24:28;;;;;;;24.98;2.67;;;17.30;99.90;;;;;;5004270;28;20109;-68
2021/12/05 13:27:04;;;;;;;12.75;1.85;;;17.30;99.90;;;;;;5001163;28;20031;-67
2021/12/05 13:29:37;;;;;;;12.80;2.22;;;17.30;99.90;;;;;;4999867;28;20172;-68
2021/12/05 13:32:15;;;;;;;12.90;2.03;;;17.30;99.90;;;;;;5005742;28;20049;-67
2021/12/05 13:34:42;;;;;;;15.80;1.73;;;17.30;99.90;;;;;;5008964;28;20069;-68
2021/12/05 13:37:09;;;;;;;8.32;2.00;;;17.30;99.90;;;;;;5005929;28;20026;-67
2021/12/05 13:40:07;;;;;;;11.63;1.63;;;17.30;99.90;;;;;;5006604;28;20023;-67
2021/12/05 13:42:39;;;;;;;10.75;1.40;;;17.30;99.90;;;;;;5008640;28;20062;-67
2021/12/05 13:45:06;;;;;;;8.20;1.60;;;17.30;99.90;;;;;;5011526;28;20032;-66
2021/12/05 13:47:51;;;;;;;10.50;1.77;;;17.30;99.90;;;;;;5004048;28;20022;-67
2021/12/05 13:50:19;;;;;;;11.88;1.05;;;17.30;99.90;;;;;;4990748;28;20026;-67
2021/12/05 13:52:52;;;;;;;20.60;1.35;;;17.30;99.90;;;;;;5005550;28;20050;-67
2021/12/05 13:55:45;;;;;;;13.25;1.23;;;17.30;99.90;;;;;;5004035;28;20077;-67
2021/12/05 13:58:46;;;;;;;9.55;1.40;;;17.30;99.90;;;;;;5016744;28;20029;-67
2021/12/05 14:01:22;;;;;;;12.80;1.42;;;17.30;99.90;;;;;;4985889;28;20046;-67
2021/12/05 14:03:52;;;;;;;14.40;1.45;;;17.20;99.90;;;;;;5002799;28;20073;-67
2021/12/05 14:06:40;;;;;;;10.13;1.80;;;17.20;99.90;;;;;;4998785;28;20038;-67
2021/12/05 14:09:35;;;;;;;17.13;1.50;;;17.20;99.90;;;;;;5006721;28;20030;-67
2021/12/05 14:12:19;;;;;;;16.10;1.58;;;17.20;99.90;;;;;;5002865;28;20019;-67
2021/12/05 14:14:51;;;;;;;12.90;1.80;;;17.30;99.90;;;;;;4997724;28;20146;-67
2021/12/05 14:17:25;;;;;;;11.80;1.40;;;17.30;99.90;;;;;;5005697;28;20026;-66
2021/12/05 14:19:58;;;;;;;10.00;1.40;;;17.40;99.90;;;;;;5011978;28;20037;-67
2021/12/05 14:22:31;;;;;;;11.98;1.25;;;17.40;99.90;;;;;;5002174;28;20283;-67
2021/12/05 14:25:02;;;;;;;15.87;1.63;;;17.40;99.90;;;;;;5006239;28;20048;-67
2021/12/05 14:27:32;;;;;;;10.07;1.27;;;17.40;99.90;;;;;;5003744;28;20018;-67
2021/12/05 14:30:02;;;;;;;16.55;2.03;;;17.30;99.90;;;;;;5004305;28;20046;-67
2021/12/05 14:32:35;;;;;;;8.00;1.40;;;17.30;99.90;;;;;;5001196;28;20450;-67
2021/12/05 14:35:12;;;;;;;8.65;2.60;;;17.30;99.90;;;;;;5004158;28;20035;-67
2021/12/05 14:37:41;;;;;;;8.77;2.15;;;17.30;99.90;;;;;;4999583;28;20049;-67
2021/12/05 14:40:10;;;;;;;13.27;2.10;;;17.40;99.90;;;;;;5002815;28;20058;-67
2021/12/05 14:42:40;;;;;;;9.77;2.17;;;17.30;99.90;;;;;;5003700;28;20072;-66
2021/12/05 14:45:15;;;;;;;11.65;1.75;;;17.30;99.90;;;;;;5002456;28;20023;-67
2021/12/05 14:47:45;;;;;;;12.27;1.55;;;17.20;99.90;;;;;;5015621;28;20509;-67
2021/12/05 14:50:26;;;;;;;13.10;2.28;;;17.20;99.90;;;;;;5019974;28;20542;-66
2021/12/05 14:52:56;;;;;;;19.35;1.67;;;17.10;99.90;;;;;;5017758;28;20037;-67
2021/12/05 14:55:27;;;;;;;11.90;2.22;;;17.20;99.90;;;;;;5005933;28;20050;-67
2021/12/05 14:58:06;;;;;;;10.45;1.85;;;17.20;99.90;;;;;;5002419;28;20041;-67
2021/12/05 15:00:42;;;;;;;9.75;1.95;;;17.20;99.90;;;;;;5004712;28;20498;-66
2021/12/05 15:03:14;;;;;;;8.02;0.70;;;17.20;99.90;;;;;;5002032;28;20082;-66
2021/12/05 15:05:45;;;;;;;9.15;1.88;;;17.20;99.90;;;;;;5003021;28;20487;-67
2021/12/05 15:08:20;;;;;;;13.13;1.65;;;17.20;99.90;;;;;;5005811;28;20030;-67
2021/12/05 15:10:52;;;;;;;8.55;1.30;;;17.10;99.90;;;;;;5003226;28;20390;-67
2021/12/05 15:13:20;;;;;;;7.70;1.15;;;17.00;99.90;;;;;;5002644;28;20407;-67
2021/12/05 15:15:47;;;;;;;14.20;1.48;;;17.00;99.90;;;;;;5003419;28;20037;-67
2021/12/05 15:18:28;;;;;;;9.00;1.73;;;16.90;99.90;;;;;;5001755;28;20026;-67
2021/12/05 15:20:57;;;;;;;13.90;1.25;;;17.00;99.90;;;;;;5003594;28;20042;-67
2021/12/05 15:23:31;;;;;;;9.02;1.02;;;17.00;99.90;;;;;;5016596;28;20117;-67
2021/12/05 15:26:03;;;;;;;9.05;1.10;;;17.00;99.90;;;;;;5001613;28;20038;-67
2021/12/05 15:28:35;;;;;;;13.98;1.50;;;17.00;99.90;;;;;;5000735;28;20372;-67
2021/12/05 15:31:03;;;;;;;11.88;1.50;;;17.00;99.90;;;;;;5001903;28;20030;-67
2021/12/05 15:33:33;;;;;;;14.00;1.10;;;17.00;99.90;;;;;;5000519;28;20025;-67
2021/12/05 15:36:01;;;;;;;12.98;1.20;;;16.90;99.90;;;;;;5002230;28;20029;-66
2021/12/05 15:38:30;;;;;;;17.00;1.40;;;16.90;99.90;;;;;;4997166;28;20138;-67
2021/12/05 15:41:02;;;;;;;10.38;1.20;;;16.90;99.90;;;;;;5001614;28;20022;-67
2021/12/05 15:43:31;;;;;;;9.75;1.35;;;16.80;99.90;;;;;;5002706;28;20042;-67
2021/12/05 15:45:59;;;;;;;11.68;1.60;;;16.80;99.90;;;;;;5001692;28;20124;-67
2021/12/05 15:48:33;;;;;;;11.80;1.90;;;16.80;99.90;;;;;;5016849;28;20038;-66
2021/12/05 15:51:01;;;;;;;;;;;16.80;99.90;;;;;;5004958;28;20030;-67
2021/12/05 15:53:31;;;;;;;13.75;1.15;;;16.80;99.90;;;;;;5003423;28;19913;-67
2021/12/05 15:56:05;;;;;;;8.40;0.70;;;16.90;99.90;;;;;;5002953;28;20034;-67
2021/12/05 15:58:45;;;;;;;10.05;1.00;;;16.90;99.90;;;;;;5001524;28;20398;-67
2021/12/05 16:01:24;;;;;;;11.52;1.50;;;16.90;99.90;;;;;;4999568;28;20022;-67
2021/12/05 16:03:56;;;;;;;10.30;1.25;;;17.10;99.90;;;;;;4999765;28;20030;-67
2021/12/05 16:06:34;;;;;;;9.48;1.45;;;17.10;99.90;;;;;;5003215;28;20037;-67
2021/12/05 16:09:15;;;;;;;11.80;1.85;;;17.20;99.90;;;;;;5005263;28;20368;-67
2021/12/05 16:11:43;;;;;;;12.30;1.65;;;17.20;99.90;;;;;;5016212;28;20041;-68
2021/12/05 16:14:10;;;;;;;14.88;2.05;;;17.30;99.90;;;;;;5003713;28;20414;-67
2021/12/05 16:16:38;;;;;;;6.38;1.00;;;17.30;99.90;;;;;;5003778;28;20117;-67
2021/12/05 16:19:10;;;;;;;12.10;1.30;;;17.20;99.90;;;;;;5017270;28;20030;-66
2021/12/05 16:21:39;;;;;;;8.98;1.45;;;17.20;99.90;;;;;;5004594;28;20023;-66
2021/12/05 16:24:10;;;;;;;10.75;1.48;;;17.30;99.90;;;;;;5004753;28;20045;-67
2021/12/05 16:26:38;;;;;;;6.15;0.90;;;17.30;99.90;;;;;;5007713;28;20026;-67
2021/12/05 16:29:09;;;;;;;12.65;1.58;;;17.40;99.90;;;;;;5008230;28;20018;-67
2021/12/05 16:31:38;;;;;;;16.45;1.13;;;17.40;99.90;;;;;;5004879;28;20112;-67
2021/12/05 16:34:14;;;;;;;9.55;1.20;;;17.40;99.90;;;;;;5006032;28;20031;-67
2021/12/05 16:37:08;;;;;;;13.30;1.85;;;17.30;99.90;;;;;;5007551;28;20045;-67
2021/12/05 16:39:38;;;;;;;7.70;1.83;;;17.40;99.90;;;;;;4997555;28;20415;-67
2021/12/05 16:42:16;;;;;;;11.70;1.00;;;17.40;99.90;;;;;;5007646;28;20315;-67
2021/12/05 16:44:58;;;;;;;12.93;1.92;;;17.40;99.90;;;;;;5005993;28;20027;-67
2021/12/05 16:47:29;;;;;;;10.10;1.85;;;17.50;99.90;;;;;;5005375;28;20452;-67
2021/12/05 16:49:59;;;;;;;8.43;1.13;;;17.40;99.90;;;;;;5010198;28;20034;-67
2021/12/05 16:52:37;;;;;;;9.18;1.17;;;17.40;99.90;;;;;;5007128;28;20088;-67
2021/12/05 16:55:21;;;;;;;9.88;1.55;;;17.40;99.90;;;;;;5004342;28;20501;-67
2021/12/05 16:57:58;;;;;;;11.10;0.90;;;17.40;99.90;;;;;;5007366;28;20050;-67
2021/12/05 17:00:28;;;;;;;13.02;1.30;;;17.40;99.90;;;;;;5030932;28;20089;-67
2021/12/05 17:03:07;;;;;;;11.18;2.13;;;17.50;99.90;;;;;;5007146;28;20105;-67
2021/12/05 17:05:43;;;;;;;21.95;2.63;;;17.50;99.90;;;;;;5009454;28;20042;-67
2021/12/05 17:08:15;;;;;;;10.55;1.00;;;17.50;99.90;;;;;;5007631;28;20018;-67
2021/12/05 17:10:48;;;;;;;10.88;1.27;;;17.50;99.90;;;;;;5010687;28;20027;-67
2021/12/05 17:13:23;;;;;;;8.55;0.90;;;17.50;99.90;;;;;;5023944;28;20050;-67
2021/12/05 17:16:07;;;;;;;9.45;1.60;;;17.40;99.90;;;;;;5026149;28;20038;-67
2021/12/05 17:18:36;;;;;;;14.73;1.75;;;17.50;99.90;;;;;;5011162;28;20063;-67
2021/12/05 17:21:05;;;;;;;7.25;0.77;;;17.50;99.90;;;;;;5009928;28;20034;-67
2021/12/05 17:23:42;;;;;;;10.38;1.10;;;17.50;99.90;;;;;;5025769;28;20052;-67
2021/12/05 17:26:33;;;;;;;14.40;1.60;;;17.40;99.90;;;;;;5011770;28;20019;-67
2021/12/05 17:29:29;;;;;;;14.50;1.40;;;17.40;99.90;;;;;;5011239;28;20037;-67
2021/12/05 17:31:58;;;;;;;6.07;1.23;;;17.50;99.90;;;;;;5004922;28;20030;-67
2021/12/05 17:34:37;;;;;;;12.85;1.60;;;17.50;99.90;;;;;;5006898;28;20102;-67
2021/12/05 17:37:10;;;;;;;10.40;1.67;;;17.50;99.90;;;;;;5007949;28;20334;-68
2021/12/05 17:39:41;;;;;;;8.57;0.93;;;17.50;99.90;;;;;;5011434;28;20027;-67
2021/12/05 17:42:15;;;;;;;5.82;1.25;;;17.40;99.90;;;;;;5005969;28;20165;-67
2021/12/05 17:44:43;;;;;;;;;;;17.40;99.90;;;;;;5005562;28;20035;-68
2021/12/05 17:47:12;;;;;;;19.33;1.45;;;17.30;99.90;;;;;;5002819;28;19961;-67
2021/12/05 17:49:41;;;;;;;7.45;1.75;;;17.30;99.90;;;;;;5026249;28;20088;-66
2021/12/05 17:52:11;;;;;;;15.05;1.60;;;17.30;99.90;;;;;;4998533;28;20037;-66
2021/12/05 17:54:59;;;;;;;9.77;1.52;;;17.20;99.90;;;;;;5000177;28;20038;-66
2021/12/05 17:57:36;;;;;;;10.32;1.20;;;17.10;99.90;;;;;;5014697;28;20034;-67
2021/12/05 18:00:22;;;;;;;12.75;1.50;;;17.00;99.90;;;;;;5000460;28;20046;-66
2021/12/05 18:02:56;;;;;;;13.40;1.67;;;17.00;99.90;;;;;;5001662;28;20036;-66
2021/12/05 18:05:27;;;;;;;7.90;1.90;;;17.00;99.90;;;;;;5006977;28;20034;-66
2021/12/05 18:07:58;;;;;;;16.15;2.65;;;17.00;99.90;;;;;;5006120;28;20276;-66
2021/12/05 18:10:29;;;;;;;11.02;1.30;;;17.00;99.90;;;;;;5007815;28;20042;-66
2021/12/05 18:12:59;;;;;;;6.95;1.10;;;17.00;99.90;;;;;;5009992;28;20110;-67
2021/12/05 18:15:29;;;;;;;6.38;1.10;;;17.00;99.90;;;;;;5008926;28;20030;-67
2021/12/05 18:17:59;;;;;;;10.32;0.98;;;17.00;99.90;;;;;;5006520;28;20027;-67
2021/12/05 18:20:30;;;;;;;9.73;1.35;;;17.00;99.90;;;;;;5005272;28;20395;-66
2021/12/05 18:23:01;;;;;;;7.05;0.90;;;17.00;99.90;;;;;;5004919;28;20042;-66
2021/12/05 18:25:28;;;;;;;11.68;1.02;;;17.00;99.90;;;;;;5005163;28;20324;-66
2021/12/05 18:27:57;;;;;;;9.27;1.20;;;16.80;99.90;;;;;;5005746;28;20069;-66